createdAt,value
2018-07-08T00:01:39.552Z,99997.34
2018-07-08T00:04:09.138Z,99994.72
2018-07-08T00:06:38.739Z,99993.00
2018-07-08T00:09:08.680Z,99993.15
2018-07-08T00:11:38.304Z,99997.83
2018-07-08T00:14:07.963Z,99994.34
2018-07-08T00:16:37.525Z,99986.44
2018-07-08T00:19:07.436Z,99989.33
2018-07-08T00:21:36.945Z,99989.14
2018-07-08T00:24:06.576Z,99993.52
2018-07-08T00:26:36.138Z,99995.03
2018-07-08T00:29:05.888Z,99991.89
2018-07-08T00:31:35.511Z,99994.84
2018-07-08T00:34:05.318Z,99991.26
2018-07-08T00:36:34.922Z,99992.47
2018-07-08T00:39:05.403Z,99992.19
2018-07-08T00:41:34.931Z,99986.50
2018-07-08T00:44:04.566Z,99984.00
2018-07-08T00:46:34.184Z,99982.67
2018-07-08T00:49:03.856Z,99989.23
2018-07-08T00:51:33.417Z,99984.28
2018-07-08T00:54:03.458Z,99987.03
2018-07-08T00:56:32.990Z,99977.16
2018-07-08T00:59:02.500Z,99981.35
2018-07-08T01:01:32.108Z,99984.02
2018-07-08T01:04:01.752Z,99979.55
2018-07-08T01:06:32.273Z,99978.39
2018-07-08T01:09:01.891Z,99986.16
2018-07-08T01:11:31.602Z,99983.87
2018-07-08T01:14:01.234Z,99979.84
2018-07-08T01:16:30.784Z,99984.31
2018-07-08T01:19:00.384Z,99980.71
2018-07-08T01:21:29.876Z,99980.33
2018-07-08T01:23:59.418Z,99981.27
2018-07-08T01:26:29.149Z,99978.20
2018-07-08T01:28:58.746Z,99976.02
2018-07-08T01:31:28.250Z,99973.61
2018-07-08T01:33:57.882Z,99977.05
2018-07-08T01:36:27.403Z,99972.32
2018-07-08T01:38:56.889Z,99971.93
2018-07-08T01:41:26.424Z,99969.69
2018-07-08T01:43:56.023Z,99975.01
2018-07-08T01:46:25.495Z,99974.21
2018-07-08T01:48:55.144Z,99973.09
2018-07-08T01:51:24.645Z,99978.02
2018-07-08T01:53:54.507Z,99980.20
2018-07-08T01:56:24.411Z,99984.28
2018-07-08T01:58:54.206Z,99977.52
2018-07-08T02:01:23.669Z,99977.05
2018-07-08T02:03:53.652Z,99978.50
2018-07-08T02:06:23.401Z,99969.48
2018-07-08T02:08:53.087Z,99972.11
2018-07-08T02:11:23.060Z,99968.86
2018-07-08T02:13:54.977Z,99971.60
2018-07-08T02:16:24.724Z,99967.70
2018-07-08T02:18:54.469Z,99974.00
2018-07-08T02:21:24.164Z,99973.14
2018-07-08T02:23:53.656Z,99971.69
2018-07-08T02:26:23.205Z,99970.19
2018-07-08T02:28:52.846Z,99965.89
2018-07-08T02:31:22.534Z,99959.84
2018-07-08T02:33:52.218Z,99963.20
2018-07-08T02:36:21.981Z,99968.48
2018-07-08T02:38:51.858Z,99966.12
2018-07-08T02:41:21.402Z,99968.22
2018-07-08T02:43:51.256Z,99969.08
2018-07-08T02:46:21.006Z,99965.48
2018-07-08T02:48:50.734Z,99963.08
2018-07-08T02:51:20.330Z,99964.78
2018-07-08T02:53:49.848Z,99965.43
2018-07-08T02:56:19.356Z,99960.20
2018-07-08T02:58:49.968Z,99960.93
2018-07-08T03:01:19.599Z,99968.68
2018-07-08T03:03:49.494Z,99967.23
2018-07-08T03:06:19.045Z,99966.28
2018-07-08T03:08:48.544Z,99969.06
2018-07-08T03:11:18.504Z,99961.30
2018-07-08T03:13:48.127Z,99964.55
2018-07-08T03:16:17.646Z,99968.83
2018-07-08T03:18:47.201Z,99967.20
2018-07-08T03:21:16.827Z,99969.77
2018-07-08T03:23:46.554Z,99973.97
2018-07-08T03:26:17.058Z,99979.47
2018-07-08T03:28:46.551Z,99974.08
2018-07-08T03:31:16.122Z,99977.80
2018-07-08T03:33:45.704Z,99977.24
2018-07-08T03:36:15.222Z,99969.90
2018-07-08T03:38:44.865Z,99962.69
2018-07-08T03:41:14.427Z,99960.52
2018-07-08T03:43:44.013Z,99959.67
2018-07-08T03:46:13.515Z,99962.98
2018-07-08T03:48:43.106Z,99959.67
2018-07-08T03:51:12.630Z,99954.75
2018-07-08T03:53:42.167Z,99955.78
2018-07-08T03:56:12.671Z,99960.26
2018-07-08T03:58:42.161Z,99951.62
2018-07-08T04:01:11.822Z,99955.89
2018-07-08T04:03:41.303Z,99960.77
2018-07-08T04:06:10.871Z,99961.45
2018-07-08T04:08:40.423Z,99968.20
2018-07-08T04:11:10.303Z,99965.22
2018-07-08T04:13:39.958Z,99963.62
2018-07-08T04:16:10.669Z,99962.28
2018-07-08T04:18:40.237Z,99966.92
2018-07-08T04:21:09.797Z,99965.46
2018-07-08T04:23:39.350Z,99979.20
2018-07-08T04:26:08.924Z,99974.31
2018-07-08T04:28:38.468Z,99983.34
2018-07-08T04:31:08.231Z,99984.05
2018-07-08T04:33:37.773Z,99982.28
2018-07-08T04:36:08.290Z,99985.86
2018-07-08T04:38:37.792Z,99984.39
2018-07-08T04:41:07.446Z,99994.20
2018-07-08T04:43:36.996Z,99987.00
2018-07-08T04:46:06.653Z,99990.70
2018-07-08T04:48:36.186Z,99989.05
2018-07-08T04:51:05.989Z,99995.38
2018-07-08T04:53:35.538Z,100000.27
2018-07-08T04:56:05.120Z,99993.08
2018-07-08T04:58:34.699Z,99994.44
2018-07-08T05:01:04.254Z,99998.31
2018-07-08T05:03:33.812Z,99998.47
2018-07-08T05:06:03.342Z,100001.75
2018-07-08T05:08:32.827Z,100002.04
2018-07-08T05:11:02.418Z,100005.92
2018-07-08T05:13:31.975Z,100009.44
2018-07-08T05:16:01.457Z,100005.19
2018-07-08T05:18:31.010Z,100003.20
2018-07-08T05:21:00.589Z,100004.05
2018-07-08T05:23:30.229Z,99999.54
2018-07-08T05:25:59.836Z,100005.11
2018-07-08T05:28:29.333Z,100004.62
2018-07-08T05:30:58.903Z,100003.47
2018-07-08T05:33:28.543Z,100005.77
2018-07-08T05:35:58.082Z,100008.61
2018-07-08T05:38:27.709Z,100006.80
2018-07-08T05:40:57.337Z,100010.75
2018-07-08T05:43:26.918Z,100004.94
2018-07-08T05:45:56.459Z,100004.72
2018-07-08T05:48:26.028Z,100005.08
2018-07-08T05:50:55.790Z,100013.14
2018-07-08T05:53:25.319Z,100009.83
2018-07-08T05:55:54.802Z,100016.13
2018-07-08T05:58:24.473Z,100011.91
2018-07-08T06:00:53.961Z,100011.19
2018-07-08T06:03:23.523Z,100011.19
2018-07-08T06:05:53.113Z,100007.44
2018-07-08T06:08:22.727Z,100009.30
2018-07-08T06:10:52.344Z,100003.18
2018-07-08T06:13:22.177Z,100004.62
2018-07-08T06:15:51.740Z,100005.47
2018-07-08T06:18:21.247Z,100006.59
2018-07-08T06:20:50.919Z,100015.02
2018-07-08T06:23:20.469Z,100015.34
2018-07-08T06:25:50.017Z,100016.42
2018-07-08T06:28:19.856Z,100023.23
2018-07-08T06:30:49.572Z,100020.23
2018-07-08T06:33:19.142Z,100019.02
2018-07-08T06:35:48.757Z,100020.73
2018-07-08T06:38:18.330Z,100020.73
2018-07-08T06:40:47.859Z,100021.26
2018-07-08T06:43:17.647Z,100019.14
2018-07-08T06:45:47.171Z,100016.74
2018-07-08T06:48:16.728Z,100016.16
2018-07-08T06:50:46.311Z,100016.73
2018-07-08T06:53:15.901Z,100014.13
2018-07-08T06:55:45.475Z,100016.09
2018-07-08T06:58:15.011Z,100020.28
2018-07-08T07:00:44.514Z,100017.73
2018-07-08T07:03:14.104Z,100022.14
2018-07-08T07:05:43.744Z,100019.07
2018-07-08T07:08:13.225Z,100015.75
2018-07-08T07:10:42.795Z,100019.93
2018-07-08T07:13:12.549Z,100023.91
2018-07-08T07:15:42.098Z,100025.67
2018-07-08T07:18:11.752Z,100022.70
2018-07-08T07:20:41.320Z,100026.80
2018-07-08T07:23:10.809Z,100025.38
2018-07-08T07:25:40.373Z,100019.91
2018-07-08T07:28:09.932Z,100023.90
2018-07-08T07:30:39.492Z,100030.05
2018-07-08T07:33:09.216Z,100026.23
2018-07-08T07:35:38.796Z,100026.53
2018-07-08T07:38:08.356Z,100023.75
2018-07-08T07:40:37.847Z,100019.92
2018-07-08T07:43:07.458Z,100027.95
2018-07-08T07:45:36.914Z,100020.41
2018-07-08T07:48:06.780Z,100019.28
2018-07-08T07:50:36.432Z,100020.14
2018-07-08T07:53:06.062Z,100022.75
2018-07-08T07:55:35.603Z,100021.22
2018-07-08T07:58:05.392Z,100013.33
2018-07-08T08:00:34.917Z,100014.48
2018-07-08T08:03:04.812Z,100014.80
2018-07-08T08:05:34.363Z,100017.97
2018-07-08T08:08:03.987Z,100009.95
2018-07-08T08:10:33.511Z,100015.16
2018-07-08T08:13:03.206Z,100016.55
2018-07-08T08:15:32.783Z,100020.66
2018-07-08T08:18:02.406Z,100019.17
2018-07-08T08:20:32.057Z,100026.55
2018-07-08T08:23:01.593Z,100026.98
2018-07-08T08:25:31.094Z,100025.77
2018-07-08T08:28:00.713Z,100030.66
2018-07-08T08:30:30.437Z,100032.41
2018-07-08T08:33:00.137Z,100036.09
2018-07-08T08:35:29.687Z,100033.20
2018-07-08T08:38:03.107Z,100027.45
2018-07-08T08:40:34.855Z,100023.36
2018-07-08T08:43:04.549Z,100022.24
2018-07-08T08:45:34.200Z,100027.70
2018-07-08T08:48:03.900Z,100020.00
2018-07-08T08:50:33.654Z,100028.84
2018-07-08T08:53:03.341Z,100032.47
2018-07-08T08:55:32.917Z,100030.63
2018-07-08T08:58:02.656Z,100019.41
2018-07-08T09:00:32.297Z,100023.13
2018-07-08T09:03:01.877Z,100028.38
2018-07-08T09:05:31.530Z,100023.30
2018-07-08T09:08:01.139Z,100025.18
2018-07-08T09:10:30.669Z,100029.71
2018-07-08T09:13:00.269Z,100020.17
2018-07-08T09:15:29.810Z,100021.82
2018-07-08T09:17:59.483Z,100029.91
2018-07-08T09:20:29.013Z,100025.67
2018-07-08T09:22:58.593Z,100023.16
2018-07-08T09:25:28.186Z,100027.14
2018-07-08T09:27:57.836Z,100018.20
2018-07-08T09:30:27.357Z,100043.00
2018-07-08T09:32:57.265Z,100018.39
2018-07-08T09:35:26.807Z,100029.77
2018-07-08T09:37:56.399Z,100026.18
2018-07-08T09:40:25.969Z,100037.27
2018-07-08T09:42:55.549Z,100022.46
2018-07-08T09:45:25.121Z,100033.54
2018-07-08T09:47:54.663Z,100029.87
2018-07-08T09:50:24.203Z,100033.00
2018-07-08T09:52:53.803Z,100022.28
2018-07-08T09:55:23.431Z,100034.80
2018-07-08T09:57:52.952Z,100015.59
2018-07-08T10:00:22.548Z,100027.39
2018-07-08T10:02:52.187Z,100020.15
2018-07-08T10:05:21.710Z,100026.77
2018-07-08T10:07:51.223Z,100013.51
2018-07-08T10:10:20.917Z,100023.11
2018-07-08T10:12:50.483Z,100014.17
2018-07-08T10:15:20.113Z,100020.31
2018-07-08T10:17:49.801Z,100024.48
2018-07-08T10:20:19.424Z,100018.55
2018-07-08T10:22:48.970Z,100014.36
2018-07-08T10:25:18.605Z,100019.72
2018-07-08T10:28:22.147Z,100024.58
2018-07-08T10:30:52.088Z,100008.16
2018-07-08T10:33:21.810Z,100005.83
2018-07-08T10:36:04.250Z,100005.30
2018-07-08T10:38:34.001Z,100012.46
2018-07-08T10:41:03.635Z,100008.41
2018-07-08T10:43:33.184Z,100006.37
2018-07-08T10:46:02.877Z,99998.29
2018-07-08T10:48:32.576Z,99998.80
2018-07-08T10:51:02.268Z,100009.34
2018-07-08T10:53:31.816Z,100017.61
2018-07-08T10:56:01.535Z,100007.09
2018-07-08T10:58:31.201Z,100012.67
2018-07-08T11:01:01.946Z,100012.88
2018-07-08T11:03:31.742Z,100010.34
2018-07-08T11:06:01.380Z,100002.00
2018-07-08T11:08:30.985Z,100002.39
2018-07-08T11:11:00.593Z,100010.84
2018-07-08T11:13:30.392Z,100011.69
2018-07-08T11:15:59.973Z,100020.86
2018-07-08T11:18:29.646Z,100020.01
2018-07-08T11:20:59.332Z,100012.33
2018-07-08T11:23:28.896Z,100013.69
2018-07-08T11:25:58.609Z,100000.98
2018-07-08T11:28:28.316Z,100002.16
2018-07-08T11:30:57.936Z,99997.64
2018-07-08T11:33:27.758Z,100000.17
2018-07-08T11:35:57.350Z,100003.84
2018-07-08T11:38:26.985Z,99997.22
2018-07-08T11:40:56.503Z,100003.46
2018-07-08T11:43:26.272Z,99984.45
2018-07-08T11:45:55.854Z,99988.58
2018-07-08T11:48:25.415Z,99992.94
2018-07-08T11:50:55.110Z,99971.33
2018-07-08T11:53:24.704Z,99975.02
2018-07-08T11:55:54.357Z,99978.81
2018-07-08T11:58:23.967Z,99990.02
2018-07-08T12:00:53.583Z,99979.63
2018-07-08T12:03:23.247Z,99998.30
2018-07-08T12:05:52.799Z,99991.70
2018-07-08T12:08:22.353Z,99984.64
2018-07-08T12:10:51.933Z,99982.38
2018-07-08T12:13:21.664Z,99979.25
2018-07-08T12:15:51.287Z,99975.69
2018-07-08T12:18:20.943Z,99988.40
2018-07-08T12:20:50.434Z,99979.34
2018-07-08T12:23:20.072Z,99979.59
2018-07-08T12:25:49.627Z,99974.80
2018-07-08T12:28:19.233Z,99990.17
2018-07-08T12:30:49.939Z,99974.55
2018-07-08T12:33:19.546Z,99981.73
2018-07-08T12:35:49.423Z,99985.45
2018-07-08T12:38:18.913Z,99983.27
2018-07-08T12:40:48.461Z,99980.71
2018-07-08T12:43:18.067Z,99978.69
2018-07-08T12:45:47.746Z,99980.42
2018-07-08T12:48:17.263Z,99984.06
2018-07-08T12:50:46.845Z,99972.30
2018-07-08T12:53:16.545Z,99971.62
2018-07-08T12:55:46.214Z,99975.34
2018-07-08T12:58:15.781Z,99983.34
2018-07-08T13:00:45.451Z,99974.35
2018-07-08T13:03:14.991Z,99979.23
2018-07-08T13:05:44.617Z,99973.63
2018-07-08T13:08:14.251Z,99969.94
2018-07-08T13:10:43.866Z,99977.56
2018-07-08T13:13:13.465Z,99971.22
2018-07-08T13:15:43.094Z,99986.34
2018-07-08T13:18:13.668Z,99965.90
2018-07-08T13:20:43.345Z,99977.08
2018-07-08T13:23:12.966Z,99963.20
2018-07-08T13:25:42.520Z,99968.44
2018-07-08T13:28:12.119Z,99964.02
2018-07-08T13:30:41.616Z,99964.19
2018-07-08T13:33:11.154Z,99970.09
2018-07-08T13:35:40.730Z,99965.84
2018-07-08T13:38:11.282Z,99969.08
2018-07-08T13:40:40.802Z,99965.91
2018-07-08T13:43:10.478Z,99975.65
2018-07-08T13:45:40.132Z,99961.52
2018-07-08T13:48:10.307Z,99964.63
2018-07-08T13:50:40.620Z,99962.71
2018-07-08T13:53:10.440Z,99962.77
2018-07-08T14:00:22.131Z,99957.86
2018-07-08T14:02:52.255Z,99958.10
2018-07-08T14:05:21.993Z,99959.48
2018-07-08T14:07:51.902Z,99952.98
2018-07-08T14:10:21.906Z,99942.05
2018-07-08T14:12:51.543Z,99949.72
2018-07-08T14:15:21.526Z,99946.80
2018-07-08T14:17:51.185Z,99947.77
2018-07-08T14:20:21.097Z,99950.50
2018-07-08T14:22:50.876Z,99951.38
2018-07-08T14:25:20.580Z,99959.41
2018-07-08T14:27:50.385Z,99956.20
2018-07-08T14:30:20.524Z,99970.05
2018-07-08T14:32:50.425Z,99959.52
2018-07-08T14:35:20.322Z,99965.73
2018-07-08T14:37:50.233Z,99964.31
2018-07-08T14:40:20.236Z,99964.48
2018-07-08T14:42:50.284Z,99964.32
2018-07-08T14:45:20.316Z,99975.33
2018-07-08T14:47:50.069Z,99967.52
2018-07-08T14:50:19.707Z,99970.22
2018-07-08T14:52:49.672Z,99965.40
2018-07-08T14:55:19.642Z,99945.62
2018-07-08T14:57:50.701Z,99952.42
2018-07-08T15:00:20.844Z,99956.41
2018-07-08T15:02:50.821Z,99950.67
2018-07-08T15:05:20.764Z,99952.50
2018-07-08T15:07:50.575Z,99952.45
2018-07-08T15:10:20.715Z,99957.95
2018-07-08T15:12:50.815Z,99953.05
2018-07-08T15:15:20.856Z,99959.13
2018-07-08T15:17:50.610Z,99960.63
2018-07-08T15:20:20.706Z,99954.97
2018-07-08T15:22:50.691Z,99964.88
2018-07-08T15:25:20.642Z,99962.58
2018-07-08T15:27:50.821Z,99965.70
2018-07-08T15:30:20.798Z,99952.16
2018-07-08T15:32:50.650Z,99951.91
2018-07-08T15:35:20.536Z,99953.27
2018-07-08T15:37:50.515Z,99957.17
2018-07-08T15:40:20.358Z,99952.85
2018-07-08T15:42:51.139Z,99953.02
2018-07-08T15:45:21.109Z,99959.33
2018-07-08T15:47:51.081Z,99945.40
2018-07-08T15:50:22.148Z,99952.95
2018-07-08T15:52:52.021Z,99953.56
2018-07-08T15:55:22.369Z,99951.16
2018-07-08T15:57:52.952Z,99957.36
2018-07-08T16:00:22.831Z,99950.06
2018-07-08T16:02:52.916Z,99949.22
2018-07-08T16:05:22.752Z,99954.10
2018-07-08T16:07:52.749Z,99961.12
2018-07-08T16:10:22.636Z,99957.27
2018-07-08T16:12:52.757Z,99959.44
2018-07-08T16:15:22.551Z,99963.13
2018-07-08T16:17:52.628Z,99957.73
2018-07-08T16:20:22.461Z,99964.00
2018-07-08T16:22:52.471Z,99956.67
2018-07-08T16:25:22.506Z,99949.73
2018-07-08T16:27:52.652Z,99946.77
2018-07-08T16:30:22.393Z,99943.22
2018-07-08T16:32:52.424Z,99944.00
2018-07-08T16:35:22.478Z,99948.09
2018-07-08T16:37:52.257Z,99950.48
2018-07-08T16:40:22.285Z,99942.69
2018-07-08T16:42:52.241Z,99941.39
2018-07-08T16:45:22.047Z,99935.30
2018-07-08T16:47:51.959Z,99932.55
2018-07-08T16:50:21.997Z,99930.08
2018-07-08T16:52:51.852Z,99924.32
2018-07-08T16:55:21.913Z,99920.70
2018-07-08T16:57:51.901Z,99917.84
2018-07-08T17:00:22.185Z,99920.38
2018-07-08T17:02:52.234Z,99922.92
2018-07-08T17:05:22.158Z,99914.32
2018-07-08T17:07:52.156Z,99919.73
2018-07-08T17:10:22.016Z,99915.03
2018-07-08T17:12:51.818Z,99911.38
2018-07-08T17:15:21.850Z,99913.02
2018-07-08T17:17:52.091Z,99912.27
2018-07-08T17:20:22.161Z,99912.42
2018-07-08T17:22:52.423Z,99909.37
2018-07-08T17:25:22.340Z,99914.66
2018-07-08T17:27:52.243Z,99914.41
2018-07-08T17:30:22.176Z,99909.89
2018-07-08T17:32:52.499Z,99914.53
2018-07-08T17:35:22.563Z,99915.41
2018-07-08T17:37:52.828Z,99923.09
2018-07-08T17:40:23.070Z,99926.05
2018-07-08T17:42:53.198Z,99929.97
2018-07-08T17:45:23.203Z,99930.95
2018-07-08T17:47:53.124Z,99934.64
2018-07-08T17:50:22.964Z,99930.70
2018-07-08T17:52:52.983Z,99935.98
2018-07-08T17:55:22.923Z,99934.38
2018-07-08T17:57:53.576Z,99934.68
2018-07-08T18:00:23.742Z,99936.79
2018-07-08T18:02:53.645Z,99942.23
2018-07-08T18:05:24.045Z,99939.87
2018-07-08T18:07:53.917Z,99944.33
2018-07-08T18:10:23.760Z,99939.16
2018-07-08T18:13:00.589Z,99943.72
2018-07-08T18:15:30.652Z,99943.15
2018-07-08T18:18:00.669Z,99940.02
2018-07-08T18:20:30.615Z,99941.80
2018-07-08T18:23:00.460Z,99945.53
2018-07-08T18:25:30.312Z,99940.28
2018-07-08T18:28:00.451Z,99949.67
2018-07-08T18:30:30.439Z,99944.36
2018-07-08T18:33:00.535Z,99945.63
2018-07-08T18:35:31.758Z,99950.44
2018-07-08T18:38:01.728Z,99949.45
2018-07-08T18:40:31.559Z,99958.05
2018-07-08T18:43:01.650Z,99952.48
2018-07-08T18:45:31.521Z,99956.02
2018-07-08T18:48:01.422Z,99954.36
2018-07-08T18:50:31.434Z,99961.55
2018-07-08T18:53:01.436Z,99955.27
2018-07-08T18:55:31.184Z,99959.95
2018-07-08T18:58:01.034Z,99962.55
2018-07-08T19:00:30.965Z,99961.28
2018-07-08T19:03:00.758Z,99960.37
2018-07-08T19:05:30.669Z,99965.55
2018-07-08T19:08:00.658Z,99964.72
2018-07-08T19:10:30.748Z,99974.17
2018-07-08T19:13:00.704Z,99966.83
2018-07-08T19:15:30.559Z,99971.99
2018-07-08T19:18:00.435Z,99970.34
2018-07-08T19:20:30.362Z,99975.69
2018-07-08T19:23:00.243Z,99975.36
2018-07-08T19:25:30.175Z,99981.28
2018-07-08T19:28:00.188Z,99980.84
2018-07-08T19:30:30.234Z,99979.80
2018-07-08T19:33:00.367Z,99986.19
2018-07-08T19:35:30.474Z,99987.51
2018-07-08T19:38:00.663Z,99984.16
2018-07-08T19:40:30.857Z,99987.07
2018-07-08T19:43:01.094Z,99990.19
2018-07-08T19:45:31.240Z,99989.72
2018-07-08T19:48:01.321Z,99989.58
2018-07-08T19:50:31.235Z,99990.56
2018-07-08T19:53:01.232Z,99993.52
2018-07-08T19:55:31.234Z,99996.97
2018-07-08T19:58:01.075Z,99991.85
2018-07-08T20:00:30.888Z,99991.20
2018-07-08T20:03:01.122Z,99993.08
2018-07-08T20:05:32.480Z,99993.97
2018-07-08T20:08:02.571Z,99994.16
2018-07-08T20:10:33.804Z,99996.75
2018-07-08T20:13:03.671Z,99991.90
2018-07-08T20:15:33.560Z,99991.90
2018-07-08T20:18:03.439Z,100000.78
2018-07-08T20:20:33.764Z,99992.71
2018-07-08T20:23:03.634Z,99993.70
2018-07-08T20:25:33.757Z,99991.98
2018-07-08T20:28:03.635Z,99993.16
2018-07-08T20:30:33.597Z,100000.48
2018-07-08T20:33:04.797Z,100000.94
2018-07-08T20:35:36.921Z,100014.19
2018-07-08T20:38:07.141Z,100016.05
2018-07-08T20:40:37.324Z,100016.34
2018-07-08T20:43:07.405Z,100006.69
2018-07-08T20:45:37.397Z,100009.13
2018-07-08T20:48:07.125Z,100009.49
2018-07-08T20:50:37.059Z,100010.35
2018-07-08T20:53:06.805Z,100009.02
2018-07-08T20:55:36.576Z,100011.00
2018-07-08T20:58:06.582Z,100006.98
2018-07-08T21:00:36.464Z,100006.00
2018-07-08T21:03:06.367Z,100008.56
2018-07-08T21:05:36.199Z,100003.11
2018-07-08T21:08:06.344Z,100002.74
2018-07-08T21:10:36.577Z,100005.30
2018-07-08T21:13:06.326Z,100001.77
2018-07-08T21:15:36.174Z,100005.94
2018-07-08T21:18:06.467Z,100001.05
2018-07-08T21:20:36.245Z,99998.98
2018-07-08T21:23:06.173Z,100001.75
2018-07-08T21:25:36.486Z,100001.25
2018-07-08T21:28:06.592Z,100003.05
2018-07-08T21:30:36.340Z,99999.16
2018-07-08T21:33:06.241Z,100006.33
2018-07-08T21:35:36.438Z,100009.23
2018-07-08T21:38:06.351Z,100006.31
2018-07-08T21:40:36.259Z,100008.48
2018-07-08T21:43:06.054Z,100006.26
2018-07-08T21:45:36.013Z,100003.70
2018-07-08T21:48:05.863Z,99996.34
2018-07-08T21:50:35.866Z,99998.10
2018-07-08T21:53:05.946Z,99992.86
2018-07-08T21:55:35.785Z,100000.44
2018-07-08T21:58:06.049Z,99995.42
2018-07-08T22:00:37.098Z,99995.65
2018-07-08T22:03:06.892Z,99996.88
2018-07-08T22:05:36.991Z,99992.08
2018-07-08T22:08:06.811Z,99995.46
2018-07-08T22:10:36.762Z,99997.06
2018-07-08T22:13:06.750Z,99995.28
2018-07-08T22:15:36.778Z,99997.25
2018-07-08T22:18:06.872Z,99998.17
2018-07-08T22:20:37.021Z,100003.16
2018-07-08T22:23:07.014Z,99999.84
2018-07-08T22:25:36.859Z,99997.17
2018-07-08T22:28:06.629Z,99997.66
2018-07-08T22:30:36.411Z,100002.56
2018-07-08T22:33:06.524Z,100007.69
2018-07-08T22:35:36.521Z,100000.75
2018-07-08T22:38:06.373Z,100003.08
2018-07-08T22:40:36.408Z,99999.78
2018-07-08T22:43:06.361Z,99997.28
2018-07-08T22:45:36.120Z,99997.54
2018-07-08T22:48:05.862Z,99995.64
2018-07-08T22:50:36.075Z,99995.03
2018-07-08T22:53:06.112Z,99992.96
2018-07-08T22:55:36.287Z,99998.73
2018-07-08T22:58:06.316Z,99996.25
2018-07-08T23:00:46.755Z,99998.06
2018-07-08T23:03:57.123Z,99998.10
2018-07-08T23:06:27.069Z,99995.09
2018-07-08T23:08:56.925Z,99995.46
2018-07-08T23:11:27.523Z,99992.64
2018-07-08T23:13:58.116Z,99995.42
2018-07-08T23:16:28.543Z,99983.86
2018-07-08T23:18:58.381Z,99984.83
2018-07-08T23:21:28.172Z,99990.41
2018-07-08T23:23:58.042Z,99989.19
2018-07-08T23:26:29.787Z,99987.06
2018-07-08T23:28:59.676Z,99986.20
2018-07-08T23:31:29.560Z,99980.44
2018-07-08T23:33:59.363Z,99986.23
2018-07-08T23:36:29.137Z,99988.11
2018-07-08T23:38:59.310Z,99985.28
2018-07-08T23:41:29.382Z,99981.80
2018-07-08T23:43:59.350Z,99987.63
2018-07-08T23:46:29.216Z,99988.48
2018-07-08T23:49:00.176Z,99984.84
2018-07-08T23:51:30.211Z,99987.34
2018-07-08T23:54:00.279Z,99987.67
2018-07-08T23:56:30.354Z,99983.66
2018-07-08T23:59:00.217Z,99983.07
